Hlavní strana
METAR-TAF:

METAR-TAF

Letiště :

Monticello, Kentucky, Spojené státy americké

zeměpisná šířka: 36-51-19N, zeměpisná délka: 084-51-22W, výška: 294 m

Aktuální stav počasí

Zpráva byla vytvořena před 37 minutami, v 02:56 UTC
Západoseverozápadní vítr 7 kt, proměnlivý mezi západním a severoseverovýchodním
Teplota -2°C
Vlhkost vzduchu 93%
Tlak 1023 hPa
Viditelnost: 16.1 km
Jasno

METAR: KEKQ 220256Z AUTO 30007KT 260V030 10SM CLR M02/M03 A3020 RMK AO2 SLP232 T10221033 51009

Čas: 23:33 (03:33 UTC)


TAF: chybějící

Stav a předpovědi počasí z více než 4 000 letišť (zprávy METAR a TAF).

Červené a žluté tečky na mapě představují dostupné meteorologické stanice.

Když kurzor umístíte na tečku, zobrazí se název stanice.

Pak kliknutím zobrazíte stav a předpověď počasí.

Chcete-li změnit mapu, kliknutím na zelené tlačítko se znaménkem +mapu přiblížíte, kliknutím na zelené tlačítko se znaménkem – mapu oddálíte a kliknutím na zelené šipky přejdete na sousední mapy.


METAR-TAF: